sensor_id;sensor_type;location;lat;lon;timestamp;P1;durP1;ratioP1;P2;durP2;ratioP2
69301;SDS011;56689;47.842;8.974;2023-12-20T10:08:04;5.88;;;3.42;;
69301;SDS011;56689;47.842;8.974;2023-12-20T10:11:12;5.53;;;3.05;;
69301;SDS011;56689;47.842;8.974;2023-12-20T10:14:36;6.10;;;2.90;;
69301;SDS011;56689;47.842;8.974;2023-12-20T10:17:54;4.82;;;2.85;;
69301;SDS011;56689;47.842;8.974;2023-12-20T10:23:42;3.95;;;1.70;;
69301;SDS011;56689;47.842;8.974;2023-12-20T10:31:02;3.88;;;2.08;;
69301;SDS011;56689;47.842;8.974;2023-12-20T10:33:35;5.40;;;2.30;;
69301;SDS011;56689;47.842;8.974;2023-12-20T10:36:01;4.43;;;2.10;;
69301;SDS011;56689;47.842;8.974;2023-12-20T10:38:31;4.00;;;2.20;;
69301;SDS011;56689;47.842;8.974;2023-12-20T10:41:45;3.67;;;1.95;;
69301;SDS011;56689;47.842;8.974;2023-12-20T10:44:51;4.47;;;2.40;;
69301;SDS011;56689;47.842;8.974;2023-12-20T10:47:33;4.63;;;2.22;;
69301;SDS011;56689;47.842;8.974;2023-12-20T10:50:54;3.78;;;1.63;;
69301;SDS011;56689;47.842;8.974;2023-12-20T10:53:35;3.60;;;1.80;;
69301;SDS011;56689;47.842;8.974;2023-12-20T10:56:06;3.83;;;1.77;;
69301;SDS011;56689;47.842;8.974;2023-12-20T17:14:18;7.25;;;1.52;;
69301;SDS011;56689;47.842;8.974;2023-12-20T17:16:55;8.07;;;2.15;;
69301;SDS011;56689;47.842;8.974;2023-12-20T17:19:38;7.65;;;1.83;;
69301;SDS011;56689;47.842;8.974;2023-12-20T17:22:17;5.93;;;1.50;;
69301;SDS011;56689;47.842;8.974;2023-12-20T17:25:04;7.38;;;1.45;;
69301;SDS011;56689;47.842;8.974;2023-12-20T17:27:47;5.03;;;1.08;;
69301;SDS011;56689;47.842;8.974;2023-12-20T17:30:25;5.85;;;1.40;;
69301;SDS011;56689;47.842;8.974;2023-12-20T17:32:55;6.97;;;2.35;;
69301;SDS011;56689;47.842;8.974;2023-12-20T17:35:37;4.83;;;1.40;;
69301;SDS011;56689;47.842;8.974;2023-12-20T17:38:07;9.10;;;1.55;;
69301;SDS011;56689;47.842;8.974;2023-12-20T17:40:35;6.05;;;1.65;;
69301;SDS011;56689;47.842;8.974;2023-12-20T17:43:25;7.13;;;1.10;;
69301;SDS011;56689;47.842;8.974;2023-12-20T17:46:04;4.60;;;0.90;;
69301;SDS011;56689;47.842;8.974;2023-12-20T17:48:29;5.43;;;1.60;;
69301;SDS011;56689;47.842;8.974;2023-12-20T17:50:55;4.40;;;0.95;;
69301;SDS011;56689;47.842;8.974;2023-12-20T17:53:25;8.23;;;1.20;;
69301;SDS011;56689;47.842;8.974;2023-12-20T17:56:05;6.25;;;1.10;;
69301;SDS011;56689;47.842;8.974;2023-12-20T17:58:36;3.57;;;1.07;;
69301;SDS011;56689;47.842;8.974;2023-12-20T18:01:10;5.05;;;1.30;;
69301;SDS011;56689;47.842;8.974;2023-12-20T18:03:40;4.55;;;1.42;;
69301;SDS011;56689;47.842;8.974;2023-12-20T18:06:16;7.35;;;2.05;;
69301;SDS011;56689;47.842;8.974;2023-12-20T18:11:50;3.40;;;0.80;;
69301;SDS011;56689;47.842;8.974;2023-12-20T18:14:23;3.97;;;0.75;;
69301;SDS011;56689;47.842;8.974;2023-12-20T18:17:01;6.10;;;1.20;;
69301;SDS011;56689;47.842;8.974;2023-12-20T18:19:32;3.85;;;1.08;;
69301;SDS011;56689;47.842;8.974;2023-12-20T18:22:02;7.13;;;1.10;;
69301;SDS011;56689;47.842;8.974;2023-12-20T18:24:35;3.23;;;0.80;;
69301;SDS011;56689;47.842;8.974;2023-12-20T18:27:09;4.05;;;1.00;;
69301;SDS011;56689;47.842;8.974;2023-12-20T18:30:02;6.22;;;1.10;;
69301;SDS011;56689;47.842;8.974;2023-12-20T18:32:34;5.75;;;1.20;;
69301;SDS011;56689;47.842;8.974;2023-12-20T18:35:16;4.43;;;1.02;;
69301;SDS011;56689;47.842;8.974;2023-12-20T18:37:51;5.43;;;1.23;;
69301;SDS011;56689;47.842;8.974;2023-12-20T18:40:46;4.03;;;1.05;;
69301;SDS011;56689;47.842;8.974;2023-12-20T18:43:14;4.65;;;1.08;;
69301;SDS011;56689;47.842;8.974;2023-12-20T18:45:53;4.55;;;1.15;;
69301;SDS011;56689;47.842;8.974;2023-12-20T18:48:31;4.72;;;1.10;;
69301;SDS011;56689;47.842;8.974;2023-12-20T18:51:19;7.50;;;1.17;;
69301;SDS011;56689;47.842;8.974;2023-12-20T18:54:02;5.72;;;1.10;;
69301;SDS011;56689;47.842;8.974;2023-12-20T18:56:31;10.82;;;2.60;;
69301;SDS011;56689;47.842;8.974;2023-12-20T18:59:07;3.90;;;1.30;;
69301;SDS011;56689;47.842;8.974;2023-12-20T19:02:09;8.18;;;3.08;;
69301;SDS011;56689;47.842;8.974;2023-12-20T19:04:45;4.17;;;1.20;;
69301;SDS011;56689;47.842;8.974;2023-12-20T19:07:16;5.63;;;0.93;;
69301;SDS011;56689;47.842;8.974;2023-12-20T19:09:51;6.50;;;1.30;;
69301;SDS011;56689;47.842;8.974;2023-12-20T19:12:34;5.13;;;0.98;;
69301;SDS011;56689;47.842;8.974;2023-12-20T19:15:13;4.32;;;1.10;;
69301;SDS011;56689;47.842;8.974;2023-12-20T19:17:59;6.07;;;0.97;;
69301;SDS011;56689;47.842;8.974;2023-12-20T19:21:15;3.78;;;0.73;;
69301;SDS011;56689;47.842;8.974;2023-12-20T19:23:48;5.75;;;0.95;;
69301;SDS011;56689;47.842;8.974;2023-12-20T19:27:09;3.97;;;1.10;;
69301;SDS011;56689;47.842;8.974;2023-12-20T19:29:45;4.53;;;0.80;;
69301;SDS011;56689;47.842;8.974;2023-12-20T19:32:14;8.13;;;1.20;;
69301;SDS011;56689;47.842;8.974;2023-12-20T19:34:47;9.07;;;1.55;;
69301;SDS011;56689;47.842;8.974;2023-12-20T19:37:17;5.57;;;1.20;;
69301;SDS011;56689;47.842;8.974;2023-12-20T19:39:48;3.40;;;1.00;;
69301;SDS011;56689;47.842;8.974;2023-12-20T19:45:05;3.10;;;0.90;;
69301;SDS011;56689;47.842;8.974;2023-12-20T19:48:03;4.43;;;1.00;;
69301;SDS011;56689;47.842;8.974;2023-12-20T19:50:41;11.50;;;3.55;;
69301;SDS011;56689;47.842;8.974;2023-12-20T19:53:19;5.93;;;1.70;;
69301;SDS011;56689;47.842;8.974;2023-12-20T19:55:59;4.90;;;1.20;;
69301;SDS011;56689;47.842;8.974;2023-12-20T19:58:31;6.13;;;1.07;;
69301;SDS011;56689;47.842;8.974;2023-12-20T20:01:07;6.03;;;0.85;;
69301;SDS011;56689;47.842;8.974;2023-12-20T20:03:47;6.93;;;1.90;;
69301;SDS011;56689;47.842;8.974;2023-12-20T20:06:17;5.80;;;1.88;;
69301;SDS011;56689;47.842;8.974;2023-12-20T20:08:44;4.70;;;1.10;;
69301;SDS011;56689;47.842;8.974;2023-12-20T20:11:15;3.33;;;0.80;;
69301;SDS011;56689;47.842;8.974;2023-12-20T20:13:43;3.75;;;0.88;;
69301;SDS011;56689;47.842;8.974;2023-12-20T20:16:12;5.20;;;1.00;;
69301;SDS011;56689;47.842;8.974;2023-12-20T20:18:40;6.10;;;0.98;;
69301;SDS011;56689;47.842;8.974;2023-12-20T20:21:09;6.50;;;1.20;;
69301;SDS011;56689;47.842;8.974;2023-12-20T20:23:40;4.57;;;0.90;;
69301;SDS011;56689;47.842;8.974;2023-12-20T20:26:05;4.78;;;1.00;;
69301;SDS011;56689;47.842;8.974;2023-12-20T20:28:34;7.13;;;1.83;;
69301;SDS011;56689;47.842;8.974;2023-12-20T20:31:01;7.50;;;1.70;;
69301;SDS011;56689;47.842;8.974;2023-12-20T20:33:28;5.60;;;1.50;;
69301;SDS011;56689;47.842;8.974;2023-12-20T20:35:53;15.93;;;3.60;;
69301;SDS011;56689;47.842;8.974;2023-12-20T20:41:42;6.72;;;2.80;;
69301;SDS011;56689;47.842;8.974;2023-12-20T20:44:32;6.40;;;1.40;;
69301;SDS011;56689;47.842;8.974;2023-12-20T20:49:59;5.97;;;1.45;;
69301;SDS011;56689;47.842;8.974;2023-12-20T20:52:28;5.43;;;1.02;;
69301;SDS011;56689;47.842;8.974;2023-12-20T20:54:54;5.25;;;1.10;;
69301;SDS011;56689;47.842;8.974;2023-12-20T20:57:20;5.47;;;1.27;;
69301;SDS011;56689;47.842;8.974;2023-12-20T20:59:49;5.05;;;1.10;;
69301;SDS011;56689;47.842;8.974;2023-12-20T21:02:14;3.43;;;0.90;;
69301;SDS011;56689;47.842;8.974;2023-12-20T21:04:40;6.03;;;0.90;;
69301;SDS011;56689;47.842;8.974;2023-12-20T21:07:06;6.23;;;0.90;;
69301;SDS011;56689;47.842;8.974;2023-12-20T21:09:32;4.20;;;0.82;;
69301;SDS011;56689;47.842;8.974;2023-12-20T21:11:58;4.33;;;1.00;;
69301;SDS011;56689;47.842;8.974;2023-12-20T21:14:23;4.43;;;0.80;;
69301;SDS011;56689;47.842;8.974;2023-12-20T21:16:51;4.57;;;1.10;;
69301;SDS011;56689;47.842;8.974;2023-12-20T21:19:16;6.90;;;1.30;;
69301;SDS011;56689;47.842;8.974;2023-12-20T21:21:42;3.10;;;0.82;;
69301;SDS011;56689;47.842;8.974;2023-12-20T21:24:07;3.50;;;0.73;;
69301;SDS011;56689;47.842;8.974;2023-12-20T21:26:33;5.37;;;0.80;;
69301;SDS011;56689;47.842;8.974;2023-12-20T21:28:58;6.18;;;0.90;;
69301;SDS011;56689;47.842;8.974;2023-12-20T21:31:24;3.63;;;0.73;;
69301;SDS011;56689;47.842;8.974;2023-12-20T21:33:51;2.85;;;0.68;;
69301;SDS011;56689;47.842;8.974;2023-12-20T21:36:19;6.50;;;1.08;;
69301;SDS011;56689;47.842;8.974;2023-12-20T21:38:47;4.07;;;0.95;;
69301;SDS011;56689;47.842;8.974;2023-12-20T21:41:13;6.20;;;1.00;;
69301;SDS011;56689;47.842;8.974;2023-12-20T21:43:41;3.20;;;0.70;;
69301;SDS011;56689;47.842;8.974;2023-12-20T21:46:09;3.47;;;0.80;;
69301;SDS011;56689;47.842;8.974;2023-12-20T21:48:35;3.67;;;0.70;;
69301;SDS011;56689;47.842;8.974;2023-12-20T21:51:01;3.30;;;0.85;;
69301;SDS011;56689;47.842;8.974;2023-12-20T21:53:28;5.80;;;1.57;;
69301;SDS011;56689;47.842;8.974;2023-12-20T21:55:54;3.05;;;0.68;;
69301;SDS011;56689;47.842;8.974;2023-12-20T21:58:19;4.10;;;0.90;;
69301;SDS011;56689;47.842;8.974;2023-12-20T22:00:45;4.47;;;0.63;;
69301;SDS011;56689;47.842;8.974;2023-12-20T22:03:10;2.50;;;0.80;;
69301;SDS011;56689;47.842;8.974;2023-12-20T22:05:37;3.20;;;0.60;;
69301;SDS011;56689;47.842;8.974;2023-12-20T22:08:04;3.05;;;0.75;;
69301;SDS011;56689;47.842;8.974;2023-12-20T22:10:31;4.65;;;1.10;;
69301;SDS011;56689;47.842;8.974;2023-12-20T22:12:57;2.83;;;0.60;;
69301;SDS011;56689;47.842;8.974;2023-12-20T22:15:23;3.58;;;0.60;;
69301;SDS011;56689;47.842;8.974;2023-12-20T22:17:49;2.90;;;0.50;;
69301;SDS011;56689;47.842;8.974;2023-12-20T22:20:21;4.32;;;0.70;;
69301;SDS011;56689;47.842;8.974;2023-12-20T22:22:47;4.23;;;0.90;;
69301;SDS011;56689;47.842;8.974;2023-12-20T22:25:12;4.43;;;0.80;;
69301;SDS011;56689;47.842;8.974;2023-12-20T22:27:39;4.57;;;0.73;;
69301;SDS011;56689;47.842;8.974;2023-12-20T22:30:05;3.90;;;0.70;;
69301;SDS011;56689;47.842;8.974;2023-12-20T22:32:31;3.20;;;0.60;;
69301;SDS011;56689;47.842;8.974;2023-12-20T22:34:56;3.00;;;0.90;;
69301;SDS011;56689;47.842;8.974;2023-12-20T22:37:22;3.33;;;0.73;;
69301;SDS011;56689;47.842;8.974;2023-12-20T22:39:49;4.45;;;0.70;;
69301;SDS011;56689;47.842;8.974;2023-12-20T22:42:15;4.78;;;0.82;;
69301;SDS011;56689;47.842;8.974;2023-12-20T22:44:42;2.22;;;0.60;;
69301;SDS011;56689;47.842;8.974;2023-12-20T22:47:08;2.30;;;0.60;;
69301;SDS011;56689;47.842;8.974;2023-12-20T22:49:35;3.88;;;0.50;;
69301;SDS011;56689;47.842;8.974;2023-12-20T22:52:01;4.00;;;0.70;;
69301;SDS011;56689;47.842;8.974;2023-12-20T22:54:27;3.10;;;0.50;;
69301;SDS011;56689;47.842;8.974;2023-12-20T22:56:52;4.37;;;0.70;;
69301;SDS011;56689;47.842;8.974;2023-12-20T22:59:19;2.47;;;0.50;;
69301;SDS011;56689;47.842;8.974;2023-12-20T23:01:45;3.33;;;0.70;;
69301;SDS011;56689;47.842;8.974;2023-12-20T23:04:11;3.43;;;0.70;;
69301;SDS011;56689;47.842;8.974;2023-12-20T23:06:41;3.45;;;0.60;;
69301;SDS011;56689;47.842;8.974;2023-12-20T23:09:06;3.00;;;0.80;;
69301;SDS011;56689;47.842;8.974;2023-12-20T23:11:33;3.53;;;0.90;;
69301;SDS011;56689;47.842;8.974;2023-12-20T23:13:58;2.23;;;0.50;;
69301;SDS011;56689;47.842;8.974;2023-12-20T23:16:24;2.83;;;0.80;;
69301;SDS011;56689;47.842;8.974;2023-12-20T23:18:50;2.70;;;0.70;;
69301;SDS011;56689;47.842;8.974;2023-12-20T23:21:15;3.30;;;0.87;;
69301;SDS011;56689;47.842;8.974;2023-12-20T23:23:41;4.40;;;0.73;;
69301;SDS011;56689;47.842;8.974;2023-12-20T23:26:06;3.23;;;0.70;;
69301;SDS011;56689;47.842;8.974;2023-12-20T23:28:32;3.20;;;0.60;;
69301;SDS011;56689;47.842;8.974;2023-12-20T23:30:57;2.50;;;0.65;;
69301;SDS011;56689;47.842;8.974;2023-12-20T23:33:23;4.93;;;0.87;;
69301;SDS011;56689;47.842;8.974;2023-12-20T23:35:48;3.00;;;0.83;;
69301;SDS011;56689;47.842;8.974;2023-12-20T23:38:14;3.13;;;0.60;;
69301;SDS011;56689;47.842;8.974;2023-12-20T23:40:39;3.80;;;0.90;;
69301;SDS011;56689;47.842;8.974;2023-12-20T23:43:04;2.83;;;0.70;;
69301;SDS011;56689;47.842;8.974;2023-12-20T23:45:30;3.97;;;0.60;;
69301;SDS011;56689;47.842;8.974;2023-12-20T23:47:57;4.25;;;0.60;;
69301;SDS011;56689;47.842;8.974;2023-12-20T23:50:22;3.28;;;0.60;;
69301;SDS011;56689;47.842;8.974;2023-12-20T23:52:48;2.58;;;0.75;;
69301;SDS011;56689;47.842;8.974;2023-12-20T23:55:15;3.97;;;0.75;;
69301;SDS011;56689;47.842;8.974;2023-12-20T23:57:42;2.85;;;0.80;;
